sensor_id;sensor_type;location;lat;lon;timestamp;P1;durP1;ratioP1;P2;durP2;ratioP2
31126;SDS011;17775;57.948;12.514;2022-12-11T00:01:09;11.63;;;2.20;;
31126;SDS011;17775;57.948;12.514;2022-12-11T00:03:36;5.18;;;2.50;;
31126;SDS011;17775;57.948;12.514;2022-12-11T00:06:04;3.97;;;2.03;;
31126;SDS011;17775;57.948;12.514;2022-12-11T00:08:30;6.28;;;2.05;;
31126;SDS011;17775;57.948;12.514;2022-12-11T00:10:57;4.15;;;2.28;;
31126;SDS011;17775;57.948;12.514;2022-12-11T00:13:23;4.78;;;1.92;;
31126;SDS011;17775;57.948;12.514;2022-12-11T00:15:49;3.83;;;2.20;;
31126;SDS011;17775;57.948;12.514;2022-12-11T00:18:16;4.13;;;2.30;;
31126;SDS011;17775;57.948;12.514;2022-12-11T00:20:42;4.65;;;2.05;;
31126;SDS011;17775;57.948;12.514;2022-12-11T00:23:09;3.47;;;2.22;;
31126;SDS011;17775;57.948;12.514;2022-12-11T00:25:42;4.97;;;2.65;;
31126;SDS011;17775;57.948;12.514;2022-12-11T00:28:10;3.08;;;1.95;;
31126;SDS011;17775;57.948;12.514;2022-12-11T00:30:40;3.55;;;1.92;;
31126;SDS011;17775;57.948;12.514;2022-12-11T00:33:08;2.13;;;1.50;;
31126;SDS011;17775;57.948;12.514;2022-12-11T00:35:41;3.90;;;1.58;;
31126;SDS011;17775;57.948;12.514;2022-12-11T00:38:09;4.28;;;1.75;;
31126;SDS011;17775;57.948;12.514;2022-12-11T00:43:06;3.10;;;1.50;;
31126;SDS011;17775;57.948;12.514;2022-12-11T00:45:39;3.25;;;1.40;;
31126;SDS011;17775;57.948;12.514;2022-12-11T00:48:06;3.88;;;1.60;;
31126;SDS011;17775;57.948;12.514;2022-12-11T00:50:34;3.33;;;1.50;;
31126;SDS011;17775;57.948;12.514;2022-12-11T00:53:01;4.05;;;1.70;;
31126;SDS011;17775;57.948;12.514;2022-12-11T00:55:28;3.60;;;1.67;;
31126;SDS011;17775;57.948;12.514;2022-12-11T00:57:55;4.90;;;2.08;;
31126;SDS011;17775;57.948;12.514;2022-12-11T01:00:21;6.28;;;2.20;;
31126;SDS011;17775;57.948;12.514;2022-12-11T01:02:48;4.32;;;2.17;;
31126;SDS011;17775;57.948;12.514;2022-12-11T01:05:15;6.90;;;2.72;;
31126;SDS011;17775;57.948;12.514;2022-12-11T01:07:42;5.82;;;2.78;;
31126;SDS011;17775;57.948;12.514;2022-12-11T01:10:11;3.78;;;1.98;;
31126;SDS011;17775;57.948;12.514;2022-12-11T01:15:18;5.03;;;2.63;;
31126;SDS011;17775;57.948;12.514;2022-12-11T01:17:44;3.30;;;1.65;;
31126;SDS011;17775;57.948;12.514;2022-12-11T01:20:11;4.32;;;1.85;;
31126;SDS011;17775;57.948;12.514;2022-12-11T01:22:41;4.20;;;1.70;;
31126;SDS011;17775;57.948;12.514;2022-12-11T01:25:07;4.25;;;2.28;;
31126;SDS011;17775;57.948;12.514;2022-12-11T01:27:37;4.30;;;2.08;;
31126;SDS011;17775;57.948;12.514;2022-12-11T01:30:05;2.72;;;1.70;;
31126;SDS011;17775;57.948;12.514;2022-12-11T01:32:33;2.97;;;1.88;;
31126;SDS011;17775;57.948;12.514;2022-12-11T01:34:59;3.15;;;2.03;;
31126;SDS011;17775;57.948;12.514;2022-12-11T01:37:28;5.28;;;2.45;;
31126;SDS011;17775;57.948;12.514;2022-12-11T01:39:54;2.88;;;1.55;;
31126;SDS011;17775;57.948;12.514;2022-12-11T01:42:21;4.20;;;1.95;;
31126;SDS011;17775;57.948;12.514;2022-12-11T01:47:14;5.25;;;1.85;;
31126;SDS011;17775;57.948;12.514;2022-12-11T01:49:40;4.18;;;1.77;;
31126;SDS011;17775;57.948;12.514;2022-12-11T01:52:10;3.90;;;1.65;;
31126;SDS011;17775;57.948;12.514;2022-12-11T01:54:42;5.35;;;1.92;;
31126;SDS011;17775;57.948;12.514;2022-12-11T01:57:10;4.05;;;1.80;;
31126;SDS011;17775;57.948;12.514;2022-12-11T01:59:37;2.75;;;1.70;;
31126;SDS011;17775;57.948;12.514;2022-12-11T02:02:20;3.15;;;1.60;;
31126;SDS011;17775;57.948;12.514;2022-12-11T02:04:48;2.40;;;1.50;;
31126;SDS011;17775;57.948;12.514;2022-12-11T02:07:14;2.25;;;1.33;;
31126;SDS011;17775;57.948;12.514;2022-12-11T02:09:41;5.22;;;1.95;;
31126;SDS011;17775;57.948;12.514;2022-12-11T02:14:43;7.65;;;2.13;;
31126;SDS011;17775;57.948;12.514;2022-12-11T02:17:20;3.70;;;1.88;;
31126;SDS011;17775;57.948;12.514;2022-12-11T02:19:50;6.85;;;2.40;;
31126;SDS011;17775;57.948;12.514;2022-12-11T02:22:26;15.48;;;4.70;;
31126;SDS011;17775;57.948;12.514;2022-12-11T02:24:59;8.63;;;3.75;;
31126;SDS011;17775;57.948;12.514;2022-12-11T02:27:37;4.78;;;2.15;;
31126;SDS011;17775;57.948;12.514;2022-12-11T02:30:11;5.28;;;2.38;;
31126;SDS011;17775;57.948;12.514;2022-12-11T02:32:55;4.53;;;2.10;;
31126;SDS011;17775;57.948;12.514;2022-12-11T02:35:34;3.65;;;2.38;;
31126;SDS011;17775;57.948;12.514;2022-12-11T02:38:04;3.92;;;2.22;;
31126;SDS011;17775;57.948;12.514;2022-12-11T02:40:34;7.03;;;2.55;;
31126;SDS011;17775;57.948;12.514;2022-12-11T02:43:03;4.00;;;1.88;;
31126;SDS011;17775;57.948;12.514;2022-12-11T02:45:31;5.47;;;2.35;;
31126;SDS011;17775;57.948;12.514;2022-12-11T02:47:57;4.30;;;2.50;;
31126;SDS011;17775;57.948;12.514;2022-12-11T02:50:26;3.70;;;2.22;;
31126;SDS011;17775;57.948;12.514;2022-12-11T02:52:53;6.03;;;2.33;;
31126;SDS011;17775;57.948;12.514;2022-12-11T02:55:21;5.63;;;2.50;;
31126;SDS011;17775;57.948;12.514;2022-12-11T02:57:50;4.75;;;2.58;;
31126;SDS011;17775;57.948;12.514;2022-12-11T03:00:18;6.70;;;3.00;;
31126;SDS011;17775;57.948;12.514;2022-12-11T03:02:44;6.05;;;2.70;;
31126;SDS011;17775;57.948;12.514;2022-12-11T03:05:11;6.60;;;2.75;;
31126;SDS011;17775;57.948;12.514;2022-12-11T03:07:39;5.18;;;2.50;;
31126;SDS011;17775;57.948;12.514;2022-12-11T03:10:07;6.18;;;2.63;;
31126;SDS011;17775;57.948;12.514;2022-12-11T03:12:35;5.50;;;2.47;;
31126;SDS011;17775;57.948;12.514;2022-12-11T03:15:04;7.22;;;2.83;;
31126;SDS011;17775;57.948;12.514;2022-12-11T03:17:35;5.05;;;2.33;;
31126;SDS011;17775;57.948;12.514;2022-12-11T03:22:55;5.20;;;2.08;;
31126;SDS011;17775;57.948;12.514;2022-12-11T03:25:25;5.28;;;2.60;;
31126;SDS011;17775;57.948;12.514;2022-12-11T03:27:57;6.32;;;3.20;;
31126;SDS011;17775;57.948;12.514;2022-12-11T03:30:24;5.07;;;2.08;;
31126;SDS011;17775;57.948;12.514;2022-12-11T03:32:53;6.43;;;3.08;;
31126;SDS011;17775;57.948;12.514;2022-12-11T03:35:33;7.88;;;2.90;;
31126;SDS011;17775;57.948;12.514;2022-12-11T03:38:09;5.30;;;2.58;;
31126;SDS011;17775;57.948;12.514;2022-12-11T03:40:37;5.22;;;2.65;;
31126;SDS011;17775;57.948;12.514;2022-12-11T03:43:04;9.45;;;3.40;;
31126;SDS011;17775;57.948;12.514;2022-12-11T03:45:31;5.75;;;2.78;;
31126;SDS011;17775;57.948;12.514;2022-12-11T03:47:58;7.30;;;3.50;;
31126;SDS011;17775;57.948;12.514;2022-12-11T03:50:27;5.82;;;2.53;;
31126;SDS011;17775;57.948;12.514;2022-12-11T03:52:56;6.20;;;2.55;;
31126;SDS011;17775;57.948;12.514;2022-12-11T03:55:23;4.85;;;2.80;;
31126;SDS011;17775;57.948;12.514;2022-12-11T03:57:52;7.15;;;2.83;;
31126;SDS011;17775;57.948;12.514;2022-12-11T04:00:19;9.45;;;3.42;;
31126;SDS011;17775;57.948;12.514;2022-12-11T04:02:45;6.97;;;3.20;;
31126;SDS011;17775;57.948;12.514;2022-12-11T04:05:42;7.75;;;2.88;;
31126;SDS011;17775;57.948;12.514;2022-12-11T04:08:09;5.07;;;2.38;;
31126;SDS011;17775;57.948;12.514;2022-12-11T04:10:36;9.52;;;3.35;;
31126;SDS011;17775;57.948;12.514;2022-12-11T04:13:02;8.05;;;2.97;;
31126;SDS011;17775;57.948;12.514;2022-12-11T04:15:32;6.68;;;2.92;;
31126;SDS011;17775;57.948;12.514;2022-12-11T04:17:59;7.45;;;3.22;;
31126;SDS011;17775;57.948;12.514;2022-12-11T04:20:46;9.48;;;3.05;;
31126;SDS011;17775;57.948;12.514;2022-12-11T04:23:31;8.35;;;3.05;;
31126;SDS011;17775;57.948;12.514;2022-12-11T04:26:17;7.93;;;3.50;;
31126;SDS011;17775;57.948;12.514;2022-12-11T04:28:45;6.82;;;2.88;;
31126;SDS011;17775;57.948;12.514;2022-12-11T04:31:13;7.63;;;2.80;;
31126;SDS011;17775;57.948;12.514;2022-12-11T04:33:41;7.63;;;3.40;;
31126;SDS011;17775;57.948;12.514;2022-12-11T04:36:07;7.25;;;3.00;;
31126;SDS011;17775;57.948;12.514;2022-12-11T04:38:34;7.50;;;3.05;;
31126;SDS011;17775;57.948;12.514;2022-12-11T04:41:11;5.32;;;2.70;;
31126;SDS011;17775;57.948;12.514;2022-12-11T04:43:38;6.22;;;2.95;;
31126;SDS011;17775;57.948;12.514;2022-12-11T04:46:08;7.93;;;2.85;;
31126;SDS011;17775;57.948;12.514;2022-12-11T04:48:36;8.10;;;3.53;;
31126;SDS011;17775;57.948;12.514;2022-12-11T04:51:02;8.00;;;2.92;;
31126;SDS011;17775;57.948;12.514;2022-12-11T04:53:29;8.07;;;3.50;;
31126;SDS011;17775;57.948;12.514;2022-12-11T04:55:56;11.07;;;3.47;;
31126;SDS011;17775;57.948;12.514;2022-12-11T04:58:23;8.50;;;3.45;;
31126;SDS011;17775;57.948;12.514;2022-12-11T05:00:52;7.90;;;3.17;;
31126;SDS011;17775;57.948;12.514;2022-12-11T05:03:19;7.90;;;3.00;;
31126;SDS011;17775;57.948;12.514;2022-12-11T05:05:51;8.43;;;3.10;;
31126;SDS011;17775;57.948;12.514;2022-12-11T05:08:19;8.05;;;3.38;;
31126;SDS011;17775;57.948;12.514;2022-12-11T05:10:56;6.38;;;2.97;;
31126;SDS011;17775;57.948;12.514;2022-12-11T05:13:22;8.68;;;2.83;;
31126;SDS011;17775;57.948;12.514;2022-12-11T05:15:49;10.02;;;3.85;;
31126;SDS011;17775;57.948;12.514;2022-12-11T05:18:15;8.18;;;2.83;;
31126;SDS011;17775;57.948;12.514;2022-12-11T05:20:42;6.68;;;2.78;;
31126;SDS011;17775;57.948;12.514;2022-12-11T05:23:08;8.68;;;3.03;;
31126;SDS011;17775;57.948;12.514;2022-12-11T05:25:35;6.68;;;3.22;;
31126;SDS011;17775;57.948;12.514;2022-12-11T05:28:03;5.55;;;2.67;;
31126;SDS011;17775;57.948;12.514;2022-12-11T05:30:31;7.95;;;3.10;;
31126;SDS011;17775;57.948;12.514;2022-12-11T05:32:57;9.57;;;3.45;;
31126;SDS011;17775;57.948;12.514;2022-12-11T05:35:24;12.65;;;3.13;;
31126;SDS011;17775;57.948;12.514;2022-12-11T05:37:50;9.93;;;3.22;;
31126;SDS011;17775;57.948;12.514;2022-12-11T05:40:17;10.32;;;3.65;;
31126;SDS011;17775;57.948;12.514;2022-12-11T05:42:43;11.93;;;3.95;;
31126;SDS011;17775;57.948;12.514;2022-12-11T05:45:10;10.88;;;3.45;;
31126;SDS011;17775;57.948;12.514;2022-12-11T05:47:36;9.80;;;3.53;;
31126;SDS011;17775;57.948;12.514;2022-12-11T05:50:03;8.80;;;3.33;;
31126;SDS011;17775;57.948;12.514;2022-12-11T05:52:30;7.60;;;2.95;;
31126;SDS011;17775;57.948;12.514;2022-12-11T05:54:57;9.80;;;3.50;;
31126;SDS011;17775;57.948;12.514;2022-12-11T05:57:23;11.25;;;3.25;;
31126;SDS011;17775;57.948;12.514;2022-12-11T05:59:49;7.63;;;3.03;;
31126;SDS011;17775;57.948;12.514;2022-12-11T06:02:16;10.65;;;3.50;;
31126;SDS011;17775;57.948;12.514;2022-12-11T06:04:42;10.98;;;3.60;;
31126;SDS011;17775;57.948;12.514;2022-12-11T06:07:09;7.75;;;3.25;;
31126;SDS011;17775;57.948;12.514;2022-12-11T06:09:35;8.70;;;3.55;;
31126;SDS011;17775;57.948;12.514;2022-12-11T06:12:02;13.73;;;3.42;;
31126;SDS011;17775;57.948;12.514;2022-12-11T06:14:28;12.30;;;3.95;;
31126;SDS011;17775;57.948;12.514;2022-12-11T06:16:54;8.98;;;3.10;;
31126;SDS011;17775;57.948;12.514;2022-12-11T06:19:21;8.35;;;3.30;;
31126;SDS011;17775;57.948;12.514;2022-12-11T06:21:47;17.83;;;4.05;;
31126;SDS011;17775;57.948;12.514;2022-12-11T06:24:14;9.15;;;3.38;;
31126;SDS011;17775;57.948;12.514;2022-12-11T06:26:40;10.82;;;3.50;;
31126;SDS011;17775;57.948;12.514;2022-12-11T06:29:07;11.05;;;3.60;;
31126;SDS011;17775;57.948;12.514;2022-12-11T06:31:38;10.35;;;3.53;;
31126;SDS011;17775;57.948;12.514;2022-12-11T06:34:04;10.82;;;3.58;;
31126;SDS011;17775;57.948;12.514;2022-12-11T06:36:31;15.73;;;3.95;;
31126;SDS011;17775;57.948;12.514;2022-12-11T06:38:57;9.15;;;3.92;;
31126;SDS011;17775;57.948;12.514;2022-12-11T06:41:24;10.07;;;3.47;;
31126;SDS011;17775;57.948;12.514;2022-12-11T06:43:50;15.68;;;4.32;;
31126;SDS011;17775;57.948;12.514;2022-12-11T06:46:17;9.60;;;4.10;;
31126;SDS011;17775;57.948;12.514;2022-12-11T06:48:45;10.95;;;3.95;;
31126;SDS011;17775;57.948;12.514;2022-12-11T06:51:13;12.95;;;4.55;;
31126;SDS011;17775;57.948;12.514;2022-12-11T06:53:40;11.35;;;3.67;;
31126;SDS011;17775;57.948;12.514;2022-12-11T06:56:08;14.93;;;4.03;;
31126;SDS011;17775;57.948;12.514;2022-12-11T06:58:35;14.45;;;3.97;;
31126;SDS011;17775;57.948;12.514;2022-12-11T07:01:03;12.25;;;4.80;;
31126;SDS011;17775;57.948;12.514;2022-12-11T07:03:29;10.25;;;3.42;;
31126;SDS011;17775;57.948;12.514;2022-12-11T07:06:02;15.43;;;3.95;;
31126;SDS011;17775;57.948;12.514;2022-12-11T07:08:29;11.13;;;3.55;;
31126;SDS011;17775;57.948;12.514;2022-12-11T07:11:00;10.02;;;3.35;;
31126;SDS011;17775;57.948;12.514;2022-12-11T07:13:27;8.32;;;3.75;;
31126;SDS011;17775;57.948;12.514;2022-12-11T07:15:57;13.05;;;4.15;;
31126;SDS011;17775;57.948;12.514;2022-12-11T07:18:23;8.95;;;3.85;;
31126;SDS011;17775;57.948;12.514;2022-12-11T07:20:50;12.25;;;4.90;;
31126;SDS011;17775;57.948;12.514;2022-12-11T07:23:16;11.38;;;4.13;;
31126;SDS011;17775;57.948;12.514;2022-12-11T07:25:43;10.52;;;4.05;;
31126;SDS011;17775;57.948;12.514;2022-12-11T07:28:09;11.25;;;3.88;;
31126;SDS011;17775;57.948;12.514;2022-12-11T07:30:41;11.18;;;3.40;;
31126;SDS011;17775;57.948;12.514;2022-12-11T07:33:08;11.45;;;5.00;;
31126;SDS011;17775;57.948;12.514;2022-12-11T07:35:35;11.10;;;4.60;;
31126;SDS011;17775;57.948;12.514;2022-12-11T07:38:01;9.90;;;4.80;;
31126;SDS011;17775;57.948;12.514;2022-12-11T07:40:28;14.05;;;3.97;;
31126;SDS011;17775;57.948;12.514;2022-12-11T07:42:54;8.07;;;3.95;;
31126;SDS011;17775;57.948;12.514;2022-12-11T07:45:21;12.05;;;4.03;;
31126;SDS011;17775;57.948;12.514;2022-12-11T07:47:47;14.85;;;4.40;;
31126;SDS011;17775;57.948;12.514;2022-12-11T07:50:14;8.23;;;3.90;;
31126;SDS011;17775;57.948;12.514;2022-12-11T07:52:42;9.13;;;4.15;;
31126;SDS011;17775;57.948;12.514;2022-12-11T07:55:08;7.85;;;3.25;;
31126;SDS011;17775;57.948;12.514;2022-12-11T07:57:35;11.57;;;3.90;;
31126;SDS011;17775;57.948;12.514;2022-12-11T08:00:02;10.23;;;4.15;;
31126;SDS011;17775;57.948;12.514;2022-12-11T08:02:32;11.23;;;4.25;;
31126;SDS011;17775;57.948;12.514;2022-12-11T08:07:29;10.82;;;4.80;;
31126;SDS011;17775;57.948;12.514;2022-12-11T08:09:55;11.10;;;4.10;;
31126;SDS011;17775;57.948;12.514;2022-12-11T08:12:21;10.27;;;5.03;;
31126;SDS011;17775;57.948;12.514;2022-12-11T08:14:48;10.60;;;3.85;;
31126;SDS011;17775;57.948;12.514;2022-12-11T08:17:14;7.47;;;3.13;;
31126;SDS011;17775;57.948;12.514;2022-12-11T08:19:41;11.07;;;3.53;;
31126;SDS011;17775;57.948;12.514;2022-12-11T08:22:07;10.93;;;3.70;;
31126;SDS011;17775;57.948;12.514;2022-12-11T08:24:34;10.48;;;3.72;;
31126;SDS011;17775;57.948;12.514;2022-12-11T08:27:00;11.35;;;4.32;;
31126;SDS011;17775;57.948;12.514;2022-12-11T08:29:27;8.45;;;3.47;;
31126;SDS011;17775;57.948;12.514;2022-12-11T08:31:53;11.27;;;4.65;;
31126;SDS011;17775;57.948;12.514;2022-12-11T08:34:19;12.15;;;4.45;;
31126;SDS011;17775;57.948;12.514;2022-12-11T08:36:46;13.90;;;5.22;;
31126;SDS011;17775;57.948;12.514;2022-12-11T08:39:12;13.93;;;4.75;;
31126;SDS011;17775;57.948;12.514;2022-12-11T08:41:41;14.15;;;5.60;;
31126;SDS011;17775;57.948;12.514;2022-12-11T08:44:10;13.35;;;4.88;;
31126;SDS011;17775;57.948;12.514;2022-12-11T08:46:41;15.15;;;5.85;;
31126;SDS011;17775;57.948;12.514;2022-12-11T08:49:08;14.55;;;5.93;;
31126;SDS011;17775;57.948;12.514;2022-12-11T08:51:35;8.00;;;4.38;;
31126;SDS011;17775;57.948;12.514;2022-12-11T08:54:02;9.25;;;4.03;;
31126;SDS011;17775;57.948;12.514;2022-12-11T08:56:28;10.88;;;4.53;;
31126;SDS011;17775;57.948;12.514;2022-12-11T08:58:57;10.00;;;4.80;;
31126;SDS011;17775;57.948;12.514;2022-12-11T09:01:26;9.45;;;4.35;;
31126;SDS011;17775;57.948;12.514;2022-12-11T09:03:53;12.00;;;4.95;;
31126;SDS011;17775;57.948;12.514;2022-12-11T09:06:20;10.25;;;4.72;;
31126;SDS011;17775;57.948;12.514;2022-12-11T09:08:47;8.75;;;4.40;;
31126;SDS011;17775;57.948;12.514;2022-12-11T09:13:44;10.00;;;4.18;;
31126;SDS011;17775;57.948;12.514;2022-12-11T09:16:15;13.57;;;4.60;;
31126;SDS011;17775;57.948;12.514;2022-12-11T09:18:42;9.88;;;4.80;;
31126;SDS011;17775;57.948;12.514;2022-12-11T09:21:11;12.05;;;5.03;;
31126;SDS011;17775;57.948;12.514;2022-12-11T09:23:41;11.30;;;5.07;;
31126;SDS011;17775;57.948;12.514;2022-12-11T09:26:11;10.80;;;5.18;;
31126;SDS011;17775;57.948;12.514;2022-12-11T09:28:39;10.20;;;4.45;;
31126;SDS011;17775;57.948;12.514;2022-12-11T09:31:14;11.75;;;4.60;;
31126;SDS011;17775;57.948;12.514;2022-12-11T09:33:41;15.00;;;4.93;;
31126;SDS011;17775;57.948;12.514;2022-12-11T09:36:08;8.52;;;4.35;;
31126;SDS011;17775;57.948;12.514;2022-12-11T09:38:35;10.48;;;4.55;;
31126;SDS011;17775;57.948;12.514;2022-12-11T09:41:02;11.82;;;4.88;;
31126;SDS011;17775;57.948;12.514;2022-12-11T09:43:41;11.55;;;5.05;;
31126;SDS011;17775;57.948;12.514;2022-12-11T09:46:09;17.58;;;6.82;;
31126;SDS011;17775;57.948;12.514;2022-12-11T09:48:38;15.63;;;5.75;;
31126;SDS011;17775;57.948;12.514;2022-12-11T09:51:09;11.35;;;4.85;;
31126;SDS011;17775;57.948;12.514;2022-12-11T09:53:37;12.32;;;5.20;;
31126;SDS011;17775;57.948;12.514;2022-12-11T10:08:47;10.13;;;4.00;;
31126;SDS011;17775;57.948;12.514;2022-12-11T10:16:44;10.68;;;4.82;;
31126;SDS011;17775;57.948;12.514;2022-12-11T10:19:14;12.38;;;4.50;;
31126;SDS011;17775;57.948;12.514;2022-12-11T10:21:42;10.35;;;3.95;;
31126;SDS011;17775;57.948;12.514;2022-12-11T10:24:17;10.27;;;4.25;;
31126;SDS011;17775;57.948;12.514;2022-12-11T10:27:19;10.43;;;4.57;;
31126;SDS011;17775;57.948;12.514;2022-12-11T10:29:47;8.68;;;3.60;;
31126;SDS011;17775;57.948;12.514;2022-12-11T10:32:23;10.48;;;4.40;;
31126;SDS011;17775;57.948;12.514;2022-12-11T10:34:54;11.88;;;4.50;;
31126;SDS011;17775;57.948;12.514;2022-12-11T10:37:23;10.32;;;3.92;;
31126;SDS011;17775;57.948;12.514;2022-12-11T10:39:49;8.82;;;3.88;;
31126;SDS011;17775;57.948;12.514;2022-12-11T10:42:17;8.27;;;4.13;;
31126;SDS011;17775;57.948;12.514;2022-12-11T10:45:00;9.35;;;3.58;;
31126;SDS011;17775;57.948;12.514;2022-12-11T10:47:27;10.95;;;3.97;;
31126;SDS011;17775;57.948;12.514;2022-12-11T10:49:58;8.70;;;4.13;;
31126;SDS011;17775;57.948;12.514;2022-12-11T10:52:34;8.32;;;4.00;;
31126;SDS011;17775;57.948;12.514;2022-12-11T10:55:02;7.50;;;4.05;;
31126;SDS011;17775;57.948;12.514;2022-12-11T10:57:35;8.43;;;4.40;;
31126;SDS011;17775;57.948;12.514;2022-12-11T11:00:06;8.90;;;4.50;;
31126;SDS011;17775;57.948;12.514;2022-12-11T11:02:34;8.30;;;4.03;;
31126;SDS011;17775;57.948;12.514;2022-12-11T11:05:10;7.78;;;3.88;;
31126;SDS011;17775;57.948;12.514;2022-12-11T11:07:38;8.75;;;4.93;;
31126;SDS011;17775;57.948;12.514;2022-12-11T11:12:38;9.73;;;4.40;;
31126;SDS011;17775;57.948;12.514;2022-12-11T11:15:06;7.97;;;4.22;;
31126;SDS011;17775;57.948;12.514;2022-12-11T11:17:39;6.03;;;3.45;;
31126;SDS011;17775;57.948;12.514;2022-12-11T11:20:21;9.75;;;4.40;;
31126;SDS011;17775;57.948;12.514;2022-12-11T11:22:55;7.40;;;3.47;;
31126;SDS011;17775;57.948;12.514;2022-12-11T11:25:23;8.00;;;3.63;;
31126;SDS011;17775;57.948;12.514;2022-12-11T11:27:54;7.88;;;3.40;;
31126;SDS011;17775;57.948;12.514;2022-12-11T11:30:38;6.03;;;3.58;;
31126;SDS011;17775;57.948;12.514;2022-12-11T11:35:38;7.03;;;3.47;;
31126;SDS011;17775;57.948;12.514;2022-12-11T11:38:17;5.53;;;3.05;;
31126;SDS011;17775;57.948;12.514;2022-12-11T11:40:46;7.15;;;3.25;;
31126;SDS011;17775;57.948;12.514;2022-12-11T11:43:18;6.35;;;3.08;;
31126;SDS011;17775;57.948;12.514;2022-12-11T11:45:53;4.68;;;3.58;;
31126;SDS011;17775;57.948;12.514;2022-12-11T11:50:56;7.63;;;2.58;;
31126;SDS011;17775;57.948;12.514;2022-12-11T11:53:29;5.25;;;2.80;;
31126;SDS011;17775;57.948;12.514;2022-12-11T11:56:18;4.57;;;2.72;;
31126;SDS011;17775;57.948;12.514;2022-12-11T11:58:44;6.88;;;3.15;;
31126;SDS011;17775;57.948;12.514;2022-12-11T12:01:19;4.32;;;2.60;;
31126;SDS011;17775;57.948;12.514;2022-12-11T12:03:46;5.30;;;2.90;;
31126;SDS011;17775;57.948;12.514;2022-12-11T12:06:16;6.18;;;3.08;;
31126;SDS011;17775;57.948;12.514;2022-12-11T12:11:33;6.85;;;2.97;;
31126;SDS011;17775;57.948;12.514;2022-12-11T12:17:16;5.13;;;2.78;;
31126;SDS011;17775;57.948;12.514;2022-12-11T12:20:49;7.80;;;3.22;;
31126;SDS011;17775;57.948;12.514;2022-12-11T12:27:55;5.05;;;3.00;;
31126;SDS011;17775;57.948;12.514;2022-12-11T12:30:24;7.43;;;3.40;;
31126;SDS011;17775;57.948;12.514;2022-12-11T12:33:14;10.13;;;3.58;;
31126;SDS011;17775;57.948;12.514;2022-12-11T12:36:45;4.57;;;2.80;;
31126;SDS011;17775;57.948;12.514;2022-12-11T12:38:50;7.68;;;3.28;;
31126;SDS011;17775;57.948;12.514;2022-12-11T12:44:15;7.38;;;3.13;;
31126;SDS011;17775;57.948;12.514;2022-12-11T12:52:04;5.47;;;3.15;;
31126;SDS011;17775;57.948;12.514;2022-12-11T12:54:31;8.07;;;3.88;;
31126;SDS011;17775;57.948;12.514;2022-12-11T12:56:59;6.35;;;3.25;;
31126;SDS011;17775;57.948;12.514;2022-12-11T12:59:27;5.40;;;3.10;;
31126;SDS011;17775;57.948;12.514;2022-12-11T13:02:00;6.50;;;3.35;;
31126;SDS011;17775;57.948;12.514;2022-12-11T13:04:38;7.63;;;3.63;;
31126;SDS011;17775;57.948;12.514;2022-12-11T13:07:22;8.20;;;3.47;;
31126;SDS011;17775;57.948;12.514;2022-12-11T13:12:45;6.90;;;3.75;;
31126;SDS011;17775;57.948;12.514;2022-12-11T13:15:22;6.45;;;3.78;;
31126;SDS011;17775;57.948;12.514;2022-12-11T13:17:49;6.53;;;3.78;;
31126;SDS011;17775;57.948;12.514;2022-12-11T13:20:19;8.68;;;4.15;;
31126;SDS011;17775;57.948;12.514;2022-12-11T13:25:18;7.07;;;3.50;;
31126;SDS011;17775;57.948;12.514;2022-12-11T13:27:45;7.80;;;4.40;;
31126;SDS011;17775;57.948;12.514;2022-12-11T13:35:26;6.97;;;4.00;;
31126;SDS011;17775;57.948;12.514;2022-12-11T13:38:00;8.63;;;3.72;;
31126;SDS011;17775;57.948;12.514;2022-12-11T13:40:32;8.73;;;3.92;;
31126;SDS011;17775;57.948;12.514;2022-12-11T13:43:04;7.30;;;3.65;;
31126;SDS011;17775;57.948;12.514;2022-12-11T13:45:43;7.35;;;4.13;;
31126;SDS011;17775;57.948;12.514;2022-12-11T13:48:20;6.85;;;3.60;;
31126;SDS011;17775;57.948;12.514;2022-12-11T13:50:47;9.23;;;4.00;;
31126;SDS011;17775;57.948;12.514;2022-12-11T13:53:16;11.55;;;4.30;;
31126;SDS011;17775;57.948;12.514;2022-12-11T13:55:43;9.48;;;4.50;;
31126;SDS011;17775;57.948;12.514;2022-12-11T13:58:21;8.80;;;4.40;;
31126;SDS011;17775;57.948;12.514;2022-12-11T14:03:30;8.52;;;4.20;;
31126;SDS011;17775;57.948;12.514;2022-12-11T14:05:57;10.50;;;4.63;;
31126;SDS011;17775;57.948;12.514;2022-12-11T14:08:26;8.50;;;4.47;;
31126;SDS011;17775;57.948;12.514;2022-12-11T14:10:52;8.40;;;4.05;;
31126;SDS011;17775;57.948;12.514;2022-12-11T14:13:24;8.25;;;4.45;;
31126;SDS011;17775;57.948;12.514;2022-12-11T14:15:51;8.57;;;3.78;;
31126;SDS011;17775;57.948;12.514;2022-12-11T14:18:25;7.50;;;4.22;;
31126;SDS011;17775;57.948;12.514;2022-12-11T14:20:56;5.97;;;3.55;;
31126;SDS011;17775;57.948;12.514;2022-12-11T14:23:27;9.95;;;4.32;;
31126;SDS011;17775;57.948;12.514;2022-12-11T14:26:10;6.15;;;3.65;;
31126;SDS011;17775;57.948;12.514;2022-12-11T14:28:40;8.13;;;4.70;;
31126;SDS011;17775;57.948;12.514;2022-12-11T14:31:07;8.65;;;3.78;;
31126;SDS011;17775;57.948;12.514;2022-12-11T14:33:35;8.75;;;4.22;;
31126;SDS011;17775;57.948;12.514;2022-12-11T14:36:02;10.30;;;4.30;;
31126;SDS011;17775;57.948;12.514;2022-12-11T14:38:32;10.05;;;4.68;;
31126;SDS011;17775;57.948;12.514;2022-12-11T14:41:01;13.70;;;5.57;;
31126;SDS011;17775;57.948;12.514;2022-12-11T14:43:35;10.52;;;4.63;;
31126;SDS011;17775;57.948;12.514;2022-12-11T14:46:19;11.75;;;5.40;;
31126;SDS011;17775;57.948;12.514;2022-12-11T14:48:49;12.02;;;5.43;;
31126;SDS011;17775;57.948;12.514;2022-12-11T14:51:24;11.73;;;4.63;;
31126;SDS011;17775;57.948;12.514;2022-12-11T14:53:51;10.88;;;4.25;;
31126;SDS011;17775;57.948;12.514;2022-12-11T14:56:20;9.13;;;4.60;;
31126;SDS011;17775;57.948;12.514;2022-12-11T14:58:50;10.75;;;4.63;;
31126;SDS011;17775;57.948;12.514;2022-12-11T15:01:35;9.45;;;4.50;;
31126;SDS011;17775;57.948;12.514;2022-12-11T15:06:41;8.37;;;4.17;;
31126;SDS011;17775;57.948;12.514;2022-12-11T15:09:13;8.88;;;4.55;;
31126;SDS011;17775;57.948;12.514;2022-12-11T15:11:41;13.35;;;4.60;;
31126;SDS011;17775;57.948;12.514;2022-12-11T15:14:08;13.50;;;5.95;;
31126;SDS011;17775;57.948;12.514;2022-12-11T15:16:39;8.20;;;3.75;;
31126;SDS011;17775;57.948;12.514;2022-12-11T15:19:13;8.18;;;3.92;;
31126;SDS011;17775;57.948;12.514;2022-12-11T15:21:42;6.57;;;3.65;;
31126;SDS011;17775;57.948;12.514;2022-12-11T15:24:17;6.32;;;3.35;;
31126;SDS011;17775;57.948;12.514;2022-12-11T15:26:46;6.60;;;3.83;;
31126;SDS011;17775;57.948;12.514;2022-12-11T15:32:20;8.18;;;4.30;;
31126;SDS011;17775;57.948;12.514;2022-12-11T15:34:49;6.93;;;3.50;;
31126;SDS011;17775;57.948;12.514;2022-12-11T15:39:42;8.75;;;4.13;;
31126;SDS011;17775;57.948;12.514;2022-12-11T15:42:09;8.02;;;3.88;;
31126;SDS011;17775;57.948;12.514;2022-12-11T15:44:38;5.70;;;3.28;;
31126;SDS011;17775;57.948;12.514;2022-12-11T15:47:17;6.45;;;3.30;;
31126;SDS011;17775;57.948;12.514;2022-12-11T15:49:45;11.63;;;4.10;;
31126;SDS011;17775;57.948;12.514;2022-12-11T15:52:12;8.35;;;4.15;;
31126;SDS011;17775;57.948;12.514;2022-12-11T15:54:38;9.52;;;4.15;;
31126;SDS011;17775;57.948;12.514;2022-12-11T15:57:05;9.27;;;4.10;;
31126;SDS011;17775;57.948;12.514;2022-12-11T15:59:35;8.25;;;3.88;;
31126;SDS011;17775;57.948;12.514;2022-12-11T16:02:01;10.45;;;4.13;;
31126;SDS011;17775;57.948;12.514;2022-12-11T16:04:28;7.55;;;3.95;;
31126;SDS011;17775;57.948;12.514;2022-12-11T16:06:54;6.43;;;3.42;;
31126;SDS011;17775;57.948;12.514;2022-12-11T16:09:21;7.70;;;3.47;;